Time;durP1;ratioP1;P1;durP2;ratioP2;P2;SDS_P1;SDS_P2;PMS_P1;PMS_P2;Temp;Humidity;BMP_temperature;BMP_pressure;BME280_temperature;BME280_humidity;BME280_pressure;Samples;Min_cycle;Max_cycle;Signal;HPM_P1;HPM_P2
2022/07/08 00:02:00;;;;;;;6.30;2.63;;;16.30;1.00;;;;;;5031833;28;20223;-59
2022/07/08 00:04:26;;;;;;;11.87;2.97;;;16.20;1.00;;;;;;5030722;28;20187;-60
2022/07/08 00:06:51;;;;;;;13.37;2.70;;;16.20;1.00;;;;;;5030512;28;20443;-59
2022/07/08 00:09:18;;;;;;;10.57;3.20;;;16.20;1.00;;;;;;5028639;28;20193;-59
2022/07/08 00:11:44;;;;;;;10.60;2.97;;;16.20;1.00;;;;;;5029381;28;20450;-60
2022/07/08 00:14:10;;;;;;;6.83;2.70;;;16.30;1.00;;;;;;5029570;28;20805;-58
2022/07/08 00:16:40;;;;;;;6.10;2.30;;;16.20;1.00;;;;;;5036027;28;20187;-59
2022/07/08 00:19:14;;;;;;;7.73;2.60;;;16.20;1.00;;;;;;5030674;28;20467;-59
2022/07/08 00:21:41;;;;;;;6.33;2.23;;;16.20;1.00;;;;;;5029670;28;20449;-59
2022/07/08 00:24:07;;;;;;;5.40;2.47;;;16.20;1.00;;;;;;5030274;28;20458;-58
2022/07/08 00:26:33;;;;;;;6.93;2.50;;;16.20;1.00;;;;;;5030703;28;20579;-59
2022/07/08 00:28:58;;;;;;;12.43;3.10;;;16.30;1.00;;;;;;5023810;28;20556;-60
2022/07/08 00:31:24;;;;;;;4.70;2.17;;;16.20;1.00;;;;;;5031442;28;20235;-59
2022/07/08 00:33:50;;;;;;;4.90;2.27;;;16.10;1.00;;;;;;5027868;28;20184;-59
2022/07/08 00:36:15;;;;;;;8.10;2.60;;;16.10;1.00;;;;;;5027393;28;20250;-60
2022/07/08 00:38:41;;;;;;;12.63;2.70;;;16.10;1.00;;;;;;5029202;28;20690;-59
2022/07/08 00:41:06;;;;;;;6.80;2.50;;;16.20;1.00;;;;;;5031496;28;20619;-59
2022/07/08 00:43:40;;;;;;;5.00;2.00;;;16.20;1.00;;;;;;5030151;28;20177;-58
2022/07/08 00:46:07;;;;;;;10.50;2.80;;;16.20;1.00;;;;;;5030185;28;20211;-58
2022/07/08 00:48:33;;;;;;;3.60;2.33;;;16.20;1.00;;;;;;5029209;28;21044;-59
2022/07/08 00:51:06;;;;;;;11.23;3.10;;;16.20;1.00;;;;;;5027130;28;20463;-58
2022/07/08 00:53:33;;;;;;;10.17;2.80;;;16.20;1.00;;;;;;5028021;28;20451;-59
2022/07/08 00:56:00;;;;;;;9.47;2.30;;;16.10;1.00;;;;;;5028405;28;20526;-60
2022/07/08 00:58:26;;;;;;;10.43;2.60;;;16.00;1.00;;;;;;5030957;28;20528;-59
2022/07/08 01:00:54;;;;;;;10.20;2.73;;;16.10;1.00;;;;;;5021591;28;20456;-60
2022/07/08 01:03:20;;;;;;;6.50;2.60;;;16.20;1.00;;;;;;5022694;28;20448;-59
2022/07/08 01:05:46;;;;;;;9.30;2.70;;;16.10;1.00;;;;;;5026739;28;20448;-60
2022/07/08 01:08:12;;;;;;;11.17;2.90;;;16.20;1.00;;;;;;5030848;28;20243;-60
2022/07/08 01:10:39;;;;;;;8.97;2.50;;;16.20;1.00;;;;;;5030118;28;20482;-60
2022/07/08 01:13:06;;;;;;;7.63;3.17;;;16.10;1.00;;;;;;5029687;28;20446;-60
2022/07/08 01:15:32;;;;;;;8.13;2.70;;;16.00;1.00;;;;;;5023956;28;20513;-59
2022/07/08 01:17:57;;;;;;;9.83;3.37;;;16.00;1.00;;;;;;5029773;28;20949;-59
2022/07/08 01:20:23;;;;;;;6.63;3.17;;;16.00;1.00;;;;;;5029501;28;20474;-59
2022/07/08 01:22:49;;;;;;;12.90;2.97;;;15.90;1.00;;;;;;5028900;28;20635;-59
2022/07/08 01:25:15;;;;;;;14.60;2.90;;;16.00;1.00;;;;;;5028776;28;20243;-60
2022/07/08 01:27:40;;;;;;;9.43;2.80;;;16.10;1.00;;;;;;5027845;28;20201;-59
2022/07/08 01:30:07;;;;;;;7.90;2.80;;;16.10;1.00;;;;;;5026513;28;20442;-58
2022/07/08 01:32:38;;;;;;;12.00;3.13;;;16.10;1.00;;;;;;5026096;28;20223;-60
2022/07/08 01:35:05;;;;;;;8.70;3.23;;;16.20;1.00;;;;;;5027535;28;20443;-59
2022/07/08 01:37:30;;;;;;;8.43;2.80;;;16.20;1.00;;;;;;5027112;28;20451;-59
2022/07/08 01:39:56;;;;;;;6.67;3.30;;;16.20;1.00;;;;;;5028594;28;20497;-60
2022/07/08 01:42:22;;;;;;;11.27;2.70;;;16.20;1.00;;;;;;5030276;28;20636;-59
2022/07/08 01:44:48;;;;;;;6.13;2.77;;;16.20;1.00;;;;;;5024245;28;20455;-59
2022/07/08 01:47:13;;;;;;;7.57;2.57;;;16.20;1.00;;;;;;5028089;28;20658;-60
2022/07/08 01:49:39;;;;;;;10.63;3.27;;;16.20;1.00;;;;;;5028379;28;20184;-59
2022/07/08 01:52:08;;;;;;;7.83;3.10;;;16.20;1.00;;;;;;5028928;28;20188;-59
2022/07/08 01:54:34;;;;;;;6.63;3.23;;;16.40;1.00;;;;;;5025384;28;20193;-60
2022/07/08 01:57:15;;;;;;;7.80;3.00;;;16.40;1.00;;;;;;5036261;28;20874;-59
2022/07/08 01:59:43;;;;;;;7.07;2.50;;;16.30;1.00;;;;;;5028834;28;20205;-60
2022/07/08 02:02:09;;;;;;;10.27;3.27;;;16.30;1.00;;;;;;5027620;28;20553;-59
2022/07/08 02:04:35;;;;;;;9.30;3.03;;;16.30;1.00;;;;;;5020871;28;20443;-60
2022/07/08 02:07:01;;;;;;;8.10;2.90;;;16.30;1.00;;;;;;5029626;28;20495;-59
2022/07/08 02:09:27;;;;;;;13.37;3.07;;;16.30;1.00;;;;;;5024314;28;20451;-59
2022/07/08 02:14:37;;;;;;;5.67;2.07;;;16.40;1.00;;;;;;5023190;28;20546;-60
2022/07/08 02:17:03;;;;;;;7.83;3.20;;;16.40;1.00;;;;;;5028010;28;20443;-58
2022/07/08 02:19:29;;;;;;;8.33;2.63;;;16.40;1.00;;;;;;5026262;28;20212;-59
2022/07/08 02:21:55;;;;;;;8.60;2.80;;;16.40;1.00;;;;;;5025999;28;20451;-59
2022/07/08 02:24:21;;;;;;;10.27;3.60;;;16.30;1.00;;;;;;5024564;28;20558;-59
2022/07/08 02:26:46;;;;;;;5.53;2.20;;;16.30;1.00;;;;;;5028445;28;20181;-59
2022/07/08 02:29:12;;;;;;;12.13;3.53;;;16.40;1.00;;;;;;5027677;28;20196;-59
2022/07/08 02:31:37;;;;;;;6.40;2.30;;;16.30;1.00;;;;;;5028731;28;20641;-59
2022/07/08 02:34:03;;;;;;;5.37;2.57;;;16.40;1.00;;;;;;5021712;28;20227;-59
2022/07/08 02:36:29;;;;;;;7.93;2.80;;;16.40;1.00;;;;;;5023983;28;20185;-59
2022/07/08 02:38:55;;;;;;;8.03;3.07;;;16.40;1.00;;;;;;5021030;28;20216;-59
2022/07/08 02:41:21;;;;;;;11.03;3.20;;;16.40;1.00;;;;;;5029749;28;20323;-59
2022/07/08 02:43:46;;;;;;;7.67;2.80;;;16.20;1.00;;;;;;5024371;28;20192;-59
2022/07/08 02:46:12;;;;;;;10.50;3.40;;;16.30;1.00;;;;;;5026885;28;20344;-58
2022/07/08 02:48:37;;;;;;;7.80;4.20;;;16.30;1.00;;;;;;5020453;28;20336;-59
2022/07/08 02:51:06;;;;;;;8.57;3.00;;;16.20;1.00;;;;;;5025528;28;20242;-59
2022/07/08 02:53:32;;;;;;;8.73;3.50;;;16.20;1.00;;;;;;5028488;28;20189;-59
2022/07/08 02:55:57;;;;;;;12.30;4.20;;;16.20;1.00;;;;;;5023872;28;20952;-60
2022/07/08 02:58:23;;;;;;;9.20;3.43;;;16.20;1.00;;;;;;5027837;28;20208;-59
2022/07/08 03:00:49;;;;;;;12.93;3.50;;;16.20;1.00;;;;;;5022532;28;20196;-61
2022/07/08 03:03:15;;;;;;;8.60;3.20;;;16.20;1.00;;;;;;5037480;28;20195;-59
2022/07/08 03:05:40;;;;;;;9.97;3.70;;;16.20;1.00;;;;;;5025179;28;20177;-60
2022/07/08 03:08:06;;;;;;;9.50;3.13;;;16.20;1.00;;;;;;5028464;28;20451;-59
2022/07/08 03:10:32;;;;;;;13.20;3.90;;;16.20;1.00;;;;;;5024688;28;20212;-61
2022/07/08 03:12:58;;;;;;;11.47;3.40;;;16.10;1.00;;;;;;5027230;28;20275;-60
2022/07/08 03:15:25;;;;;;;9.67;2.87;;;16.10;1.00;;;;;;5024772;28;20483;-59
2022/07/08 03:17:51;;;;;;;13.73;3.43;;;16.10;1.00;;;;;;5026500;28;20454;-60
2022/07/08 03:20:17;;;;;;;13.77;4.00;;;16.20;1.00;;;;;;5029708;28;20450;-59
2022/07/08 03:22:43;;;;;;;16.17;3.67;;;16.30;1.00;;;;;;5030006;28;20429;-60
2022/07/08 03:25:09;;;;;;;16.07;3.80;;;16.20;1.00;;;;;;5022738;28;20436;-60
2022/07/08 03:27:35;;;;;;;6.93;3.20;;;16.20;1.00;;;;;;5029902;28;20185;-59
2022/07/08 03:30:00;;;;;;;9.53;3.60;;;16.20;1.00;;;;;;5027436;28;20535;-59
2022/07/08 03:32:26;;;;;;;9.20;3.33;;;16.20;1.00;;;;;;5031093;28;20685;-60
2022/07/08 03:34:52;;;;;;;11.50;3.40;;;16.10;1.00;;;;;;5028640;28;20177;-59
2022/07/08 03:37:18;;;;;;;10.53;3.63;;;16.10;1.00;;;;;;5030217;28;20451;-60
2022/07/08 03:39:44;;;;;;;14.67;4.40;;;16.10;1.00;;;;;;5030779;28;20279;-57
2022/07/08 03:42:09;;;;;;;15.73;4.20;;;16.10;1.00;;;;;;5029541;28;20193;-60
2022/07/08 03:44:35;;;;;;;10.73;3.70;;;16.10;1.00;;;;;;5029296;28;20196;-60
2022/07/08 03:47:00;;;;;;;8.33;3.50;;;16.00;1.00;;;;;;5027632;28;20705;-60
2022/07/08 03:49:26;;;;;;;6.33;3.30;;;16.00;1.00;;;;;;5028833;28;20292;-60
2022/07/08 03:51:52;;;;;;;8.13;3.67;;;15.90;1.00;;;;;;5029545;28;20197;-59
2022/07/08 03:54:18;;;;;;;18.03;4.07;;;16.00;1.00;;;;;;5024972;28;20185;-60
2022/07/08 03:56:43;;;;;;;15.03;4.40;;;16.00;1.00;;;;;;5017403;28;20201;-60
2022/07/08 03:59:09;;;;;;;11.70;3.80;;;16.00;1.00;;;;;;5017697;28;20486;-60
2022/07/08 04:01:35;;;;;;;11.87;3.53;;;16.10;1.00;;;;;;5012975;28;20177;-59
2022/07/08 04:04:00;;;;;;;12.27;4.10;;;16.10;1.00;;;;;;5016482;28;20193;-60
2022/07/08 04:06:26;;;;;;;10.93;4.40;;;16.00;1.00;;;;;;5016275;28;20614;-59
2022/07/08 04:08:52;;;;;;;14.43;3.43;;;16.00;1.00;;;;;;5037919;28;20199;-59
2022/07/08 04:11:18;;;;;;;10.03;3.73;;;16.00;1.00;;;;;;5027724;28;20960;-59
2022/07/08 04:13:43;;;;;;;8.50;3.47;;;15.90;1.00;;;;;;5035507;28;20245;-60
2022/07/08 04:16:12;;;;;;;16.97;4.43;;;15.90;1.00;;;;;;5026389;28;20188;-60
2022/07/08 04:18:39;;;;;;;10.97;4.43;;;16.10;1.00;;;;;;5029621;28;20220;-58
2022/07/08 04:21:06;;;;;;;12.60;4.13;;;16.20;1.00;;;;;;5027114;28;20439;-59
2022/07/08 04:23:31;;;;;;;9.93;4.10;;;16.40;1.00;;;;;;5029910;28;22107;-59
2022/07/08 04:25:57;;;;;;;15.23;4.17;;;16.30;1.00;;;;;;5029656;28;20455;-59
2022/07/08 04:28:22;;;;;;;15.80;3.70;;;16.40;1.00;;;;;;5027354;28;20208;-59
2022/07/08 04:30:48;;;;;;;14.87;4.73;;;16.40;1.00;;;;;;5030097;28;20650;-59
2022/07/08 04:33:14;;;;;;;13.90;4.30;;;16.40;1.00;;;;;;5029721;28;20646;-59
2022/07/08 04:35:40;;;;;;;14.83;3.90;;;16.50;1.00;;;;;;5030428;28;20189;-61
2022/07/08 04:38:05;;;;;;;13.13;4.07;;;16.50;1.00;;;;;;5031291;28;20661;-61
2022/07/08 04:40:31;;;;;;;13.70;4.20;;;16.40;1.00;;;;;;5027701;28;20307;-62
2022/07/08 04:42:57;;;;;;;10.40;5.00;;;16.40;1.00;;;;;;5030552;28;20176;-63
2022/07/08 04:45:23;;;;;;;13.63;4.00;;;16.30;1.00;;;;;;5032011;28;20188;-61
2022/07/08 04:47:50;;;;;;;11.30;4.33;;;16.40;1.00;;;;;;5044110;28;20452;-62
2022/07/08 04:50:16;;;;;;;14.07;4.30;;;16.40;1.00;;;;;;5031121;28;20428;-62
2022/07/08 04:52:41;;;;;;;12.37;3.90;;;16.40;1.00;;;;;;5029915;28;20436;-61
2022/07/08 04:55:07;;;;;;;16.20;4.90;;;16.30;1.00;;;;;;5031270;28;20419;-62
2022/07/08 04:57:33;;;;;;;11.70;4.97;;;16.30;1.00;;;;;;5030330;28;20677;-61
2022/07/08 04:59:59;;;;;;;13.67;4.40;;;16.40;1.00;;;;;;5030987;28;20478;-62
2022/07/08 05:02:28;;;;;;;12.30;4.00;;;16.40;1.00;;;;;;5030708;28;20185;-63
2022/07/08 05:04:54;;;;;;;12.50;4.80;;;16.20;1.00;;;;;;5029667;28;20456;-63
2022/07/08 05:07:20;;;;;;;14.83;4.47;;;16.30;1.00;;;;;;5030814;28;20589;-61
2022/07/08 05:09:45;;;;;;;9.90;4.43;;;16.40;1.00;;;;;;5029240;28;20189;-61
2022/07/08 05:12:11;;;;;;;15.43;5.63;;;16.30;1.00;;;;;;5030552;28;20203;-62
2022/07/08 05:14:36;;;;;;;12.63;4.77;;;16.30;1.00;;;;;;5030781;28;20573;-60
2022/07/08 05:17:02;;;;;;;12.97;5.83;;;16.40;1.00;;;;;;5027888;28;20641;-61
2022/07/08 05:19:28;;;;;;;12.13;4.93;;;16.50;1.00;;;;;;5030141;28;20212;-61
2022/07/08 05:21:54;;;;;;;12.23;5.17;;;16.50;1.00;;;;;;5030348;28;20436;-60
2022/07/08 05:24:20;;;;;;;18.93;5.30;;;16.60;1.00;;;;;;5030267;28;20526;-61
2022/07/08 05:26:45;;;;;;;14.83;6.00;;;16.60;1.00;;;;;;5029178;28;20211;-60
2022/07/08 05:29:11;;;;;;;16.80;5.30;;;16.60;1.00;;;;;;5029826;28;20215;-60
2022/07/08 05:31:37;;;;;;;13.70;4.40;;;16.40;1.00;;;;;;5029018;28;20262;-60
2022/07/08 05:34:02;;;;;;;11.97;4.83;;;16.40;1.00;;;;;;5036869;28;20290;-60
2022/07/08 05:36:29;;;;;;;15.20;5.10;;;16.40;1.00;;;;;;5049913;28;20180;-61
2022/07/08 05:38:55;;;;;;;12.63;4.33;;;16.50;1.00;;;;;;5028935;28;20550;-61
2022/07/08 05:41:21;;;;;;;12.27;4.63;;;16.50;1.00;;;;;;5030259;28;20441;-61
2022/07/08 05:43:46;;;;;;;13.87;5.40;;;16.60;1.00;;;;;;5031051;28;20657;-59
2022/07/08 05:46:12;;;;;;;22.27;6.40;;;16.60;1.00;;;;;;5029135;28;20219;-59
2022/07/08 05:48:38;;;;;;;15.97;6.40;;;16.60;1.00;;;;;;5029985;28;20184;-60
2022/07/08 05:51:06;;;;;;;12.63;5.07;;;16.40;1.00;;;;;;5030277;28;20193;-60
2022/07/08 05:53:32;;;;;;;18.60;4.50;;;16.60;1.00;;;;;;5030194;28;20188;-60
2022/07/08 05:55:57;;;;;;;17.47;5.73;;;16.60;1.00;;;;;;5030072;28;20439;-60
2022/07/08 05:58:23;;;;;;;19.90;6.20;;;16.60;1.00;;;;;;5030103;28;20258;-60
2022/07/08 06:00:49;;;;;;;16.43;5.03;;;16.70;1.00;;;;;;5029874;28;20184;-59
2022/07/08 06:03:14;;;;;;;17.77;5.33;;;16.70;1.00;;;;;;5032255;28;20224;-60
2022/07/08 06:05:40;;;;;;;16.70;5.67;;;16.60;1.00;;;;;;5030053;28;20183;-59
2022/07/08 06:08:05;;;;;;;11.80;5.03;;;16.80;1.00;;;;;;5030106;28;20185;-59
2022/07/08 06:10:31;;;;;;;19.00;5.80;;;16.80;1.00;;;;;;5030375;28;20180;-59
2022/07/08 06:12:57;;;;;;;21.80;5.60;;;16.60;1.00;;;;;;5030003;28;20195;-61
2022/07/08 06:15:22;;;;;;;21.27;5.83;;;16.60;1.00;;;;;;5029944;28;20184;-59
2022/07/08 06:17:48;;;;;;;20.43;6.07;;;16.60;1.00;;;;;;5031141;28;20184;-60
2022/07/08 06:20:14;;;;;;;16.93;6.00;;;16.60;1.00;;;;;;5029853;28;20196;-59
2022/07/08 06:22:41;;;;;;;13.87;5.53;;;16.60;1.00;;;;;;5029873;28;20230;-59
2022/07/08 06:25:07;;;;;;;19.43;5.50;;;16.70;1.00;;;;;;5029478;28;20925;-60
2022/07/08 06:27:32;;;;;;;18.97;4.87;;;16.90;1.00;;;;;;5046203;28;20427;-61
2022/07/08 06:29:58;;;;;;;14.77;5.37;;;16.90;1.00;;;;;;5049422;28;20950;-60
2022/07/08 06:32:24;;;;;;;15.90;4.97;;;17.10;1.00;;;;;;5033537;28;20191;-59
2022/07/08 06:34:49;;;;;;;13.30;5.10;;;17.20;1.00;;;;;;5039795;28;20184;-60
2022/07/08 06:37:15;;;;;;;10.23;4.43;;;17.30;1.00;;;;;;5049712;28;20204;-60
2022/07/08 06:39:41;;;;;;;11.97;4.93;;;17.10;1.00;;;;;;5040806;28;20204;-60
2022/07/08 06:42:07;;;;;;;13.83;5.07;;;17.10;1.00;;;;;;5029543;28;20706;-59
2022/07/08 06:44:32;;;;;;;15.77;5.07;;;17.20;1.00;;;;;;5032690;28;20184;-60
2022/07/08 06:46:58;;;;;;;24.00;7.07;;;17.50;1.00;;;;;;5030074;28;20514;-60
2022/07/08 06:49:24;;;;;;;14.30;4.73;;;17.70;1.00;;;;;;5029286;28;20642;-60
2022/07/08 06:51:49;;;;;;;13.30;6.13;;;17.60;1.00;;;;;;5030985;28;20235;-61
2022/07/08 06:57:05;;;;;;;12.60;4.50;;;17.50;1.00;;;;;;5051156;28;20226;-60
2022/07/08 06:59:30;;;;;;;18.27;5.80;;;17.50;1.00;;;;;;5053075;28;20458;-59
2022/07/08 07:01:57;;;;;;;17.90;5.53;;;17.40;1.00;;;;;;5053280;28;20559;-59
2022/07/08 07:04:22;;;;;;;9.80;4.47;;;17.30;1.00;;;;;;5043941;28;20185;-59
2022/07/08 07:06:48;;;;;;;12.40;5.33;;;17.40;1.00;;;;;;5033434;28;20422;-60
2022/07/08 07:09:14;;;;;;;15.27;5.70;;;17.40;1.00;;;;;;5032990;28;20204;-60
2022/07/08 07:11:40;;;;;;;12.70;4.87;;;17.60;1.00;;;;;;5032976;28;20208;-60
2022/07/08 07:14:06;;;;;;;10.60;4.90;;;17.60;1.00;;;;;;5033034;28;20443;-59
2022/07/08 07:16:32;;;;;;;13.80;4.77;;;17.60;1.00;;;;;;5032938;28;20557;-60
2022/07/08 07:18:58;;;;;;;12.00;4.90;;;17.50;1.00;;;;;;5050554;28;20469;-60
2022/07/08 07:21:24;;;;;;;15.33;4.83;;;17.30;1.00;;;;;;5052399;28;20450;-59
2022/07/08 07:23:49;;;;;;;14.20;5.70;;;17.10;1.00;;;;;;5052673;28;20687;-60
2022/07/08 07:26:15;;;;;;;10.10;4.47;;;17.10;1.00;;;;;;5052659;28;20207;-61
2022/07/08 07:28:41;;;;;;;12.10;4.60;;;17.20;1.00;;;;;;5040158;28;20627;-60
2022/07/08 07:31:07;;;;;;;9.40;4.77;;;17.30;1.00;;;;;;5033068;28;20377;-60
2022/07/08 07:33:33;;;;;;;10.60;4.57;;;17.20;1.00;;;;;;5031698;28;20192;-60
2022/07/08 07:35:59;;;;;;;13.70;4.57;;;17.00;1.00;;;;;;5032626;28;20196;-60
2022/07/08 07:38:24;;;;;;;11.00;4.60;;;17.00;1.00;;;;;;5048403;28;20458;-60
2022/07/08 07:40:51;;;;;;;14.77;4.73;;;16.90;1.00;;;;;;5052435;28;20180;-60
2022/07/08 07:43:16;;;;;;;12.10;5.43;;;17.00;1.00;;;;;;5052270;28;20180;-60
2022/07/08 07:45:42;;;;;;;14.83;7.23;;;17.20;1.00;;;;;;5052341;28;20435;-60
2022/07/08 07:48:07;;;;;;;14.90;5.07;;;17.30;1.00;;;;;;5052493;28;20242;-59
2022/07/08 07:50:33;;;;;;;21.10;4.37;;;17.40;1.00;;;;;;5052336;28;20290;-58
2022/07/08 07:52:59;;;;;;;9.40;4.90;;;17.50;1.00;;;;;;5035932;28;20204;-61
2022/07/08 07:55:24;;;;;;;9.70;3.70;;;17.50;1.00;;;;;;5051565;28;20259;-60
2022/07/08 07:57:50;;;;;;;11.87;4.27;;;17.50;1.00;;;;;;5051776;28;20223;-61
2022/07/08 08:00:16;;;;;;;8.77;3.90;;;17.60;1.00;;;;;;5044365;28;20618;-60
2022/07/08 08:02:43;;;;;;;12.70;3.83;;;17.40;1.00;;;;;;5031142;28;20235;-59
2022/07/08 08:05:10;;;;;;;11.90;4.03;;;17.10;1.00;;;;;;5032388;28;20435;-60
2022/07/08 08:07:39;;;;;;;12.00;4.17;;;17.30;1.00;;;;;;5032141;28;20920;-60
2022/07/08 08:10:06;;;;;;;13.20;4.90;;;17.50;1.00;;;;;;5034659;28;20455;-59
2022/07/08 08:12:31;;;;;;;16.63;3.83;;;17.70;1.00;;;;;;5032763;28;20481;-60
2022/07/08 08:14:57;;;;;;;12.67;3.73;;;17.80;1.00;;;;;;5031913;28;20438;-61
2022/07/08 08:17:22;;;;;;;7.17;4.07;;;18.00;1.00;;;;;;5031794;28;20228;-60
2022/07/08 08:19:48;;;;;;;7.80;3.53;;;18.10;1.00;;;;;;5032014;28;20205;-61
2022/07/08 08:22:14;;;;;;;19.63;4.90;;;18.00;1.00;;;;;;5031724;28;20204;-61
2022/07/08 08:24:39;;;;;;;12.47;4.00;;;18.00;1.00;;;;;;5031585;28;20185;-60
2022/07/08 08:27:05;;;;;;;9.50;3.63;;;18.00;1.00;;;;;;5031302;28;20191;-60
2022/07/08 08:29:31;;;;;;;10.10;4.47;;;18.00;1.00;;;;;;5031250;28;20204;-61
2022/07/08 08:31:56;;;;;;;14.87;3.83;;;17.90;1.00;;;;;;5030899;28;20284;-60
2022/07/08 08:34:22;;;;;;;7.50;3.27;;;18.00;1.00;;;;;;5034355;28;20192;-61
2022/07/08 08:36:48;;;;;;;12.37;4.33;;;18.00;1.00;;;;;;5032196;28;20184;-61
2022/07/08 08:39:13;;;;;;;11.37;3.50;;;18.00;1.00;;;;;;5031516;28;20212;-60
2022/07/08 08:41:41;;;;;;;10.60;3.93;;;18.10;1.00;;;;;;5031209;28;20196;-61
2022/07/08 08:44:06;;;;;;;8.00;2.77;;;18.20;1.00;;;;;;5035028;28;20181;-60
2022/07/08 08:46:32;;;;;;;7.60;3.07;;;18.40;1.00;;;;;;5031389;28;20439;-61
2022/07/08 08:48:58;;;;;;;5.00;2.90;;;18.60;1.00;;;;;;5030770;28;20212;-60
2022/07/08 08:51:24;;;;;;;10.10;3.37;;;18.80;1.00;;;;;;5031161;28;20519;-61
2022/07/08 08:53:53;;;;;;;10.27;3.23;;;19.00;1.00;;;;;;5031095;28;20188;-61
2022/07/08 08:56:19;;;;;;;10.07;3.73;;;19.30;1.00;;;;;;5035698;28;20200;-61
2022/07/08 08:58:49;;;;;;;5.53;3.27;;;19.40;1.00;;;;;;5030664;28;20469;-61
2022/07/08 09:01:16;;;;;;;7.30;2.50;;;19.40;1.00;;;;;;5030417;28;20442;-61
2022/07/08 09:03:43;;;;;;;9.17;3.30;;;19.20;1.00;;;;;;5031983;28;20916;-60
2022/07/08 09:06:09;;;;;;;12.50;3.07;;;19.10;1.00;;;;;;5031595;28;20824;-60
2022/07/08 09:08:36;;;;;;;11.20;3.40;;;18.90;1.00;;;;;;5030753;28;20417;-60
2022/07/08 09:11:04;;;;;;;9.00;3.43;;;18.80;1.00;;;;;;5030283;28;20431;-61
2022/07/08 09:13:29;;;;;;;7.37;3.10;;;18.70;1.00;;;;;;5030992;28;20447;-61
2022/07/08 09:15:59;;;;;;;9.80;3.43;;;18.60;1.00;;;;;;5030504;28;20442;-60
2022/07/08 09:18:30;;;;;;;11.80;3.13;;;18.80;1.00;;;;;;5030681;28;20196;-60
2022/07/08 09:20:57;;;;;;;7.87;3.43;;;18.80;1.00;;;;;;5037102;28;20410;-61
2022/07/08 09:23:24;;;;;;;8.47;3.20;;;18.90;1.00;;;;;;5028928;28;20465;-60
2022/07/08 09:25:55;;;;;;;8.77;3.27;;;19.00;1.00;;;;;;5030621;28;20467;-61
2022/07/08 09:28:44;;;;;;;7.90;3.27;;;19.20;1.00;;;;;;5030493;28;20958;-60
2022/07/08 09:31:15;;;;;;;10.60;3.23;;;19.50;1.00;;;;;;5035565;28;20529;-60
2022/07/08 09:33:42;;;;;;;7.07;3.40;;;19.90;1.00;;;;;;5030418;28;20525;-61
2022/07/08 09:36:08;;;;;;;7.57;3.83;;;20.00;1.00;;;;;;5030064;28;20508;-61
2022/07/08 09:38:37;;;;;;;6.60;2.67;;;20.00;1.00;;;;;;5028791;28;20483;-60
2022/07/08 09:41:04;;;;;;;5.67;3.03;;;20.20;1.00;;;;;;5030342;28;20887;-60
2022/07/08 09:43:32;;;;;;;5.47;3.03;;;20.20;1.00;;;;;;5030658;28;20509;-60
2022/07/08 09:46:07;;;;;;;8.73;4.50;;;20.10;1.00;;;;;;5030151;28;20466;-60
2022/07/08 09:48:33;;;;;;;9.20;3.77;;;19.90;1.00;;;;;;5031173;28;20450;-61
2022/07/08 09:51:00;;;;;;;6.83;2.50;;;19.40;1.00;;;;;;5030732;28;20534;-66
2022/07/08 09:53:28;;;;;;;9.07;3.13;;;19.10;1.00;;;;;;5030211;28;20789;-60
2022/07/08 09:55:55;;;;;;;5.23;3.00;;;18.90;1.00;;;;;;5030271;28;20959;-59
2022/07/08 09:58:27;;;;;;;5.37;3.00;;;18.80;1.00;;;;;;5029993;28;20450;-61
2022/07/08 10:00:54;;;;;;;6.37;3.03;;;18.90;1.00;;;;;;5029650;28;20443;-60
2022/07/08 10:03:22;;;;;;;9.77;4.30;;;19.00;1.00;;;;;;5030092;28;20440;-61
2022/07/08 10:05:48;;;;;;;5.57;2.70;;;19.10;1.00;;;;;;5030173;28;20471;-61
2022/07/08 10:08:16;;;;;;;8.23;3.30;;;19.40;1.00;;;;;;5030332;28;20447;-61
2022/07/08 10:10:44;;;;;;;12.27;4.93;;;19.70;1.00;;;;;;5030154;28;20439;-61
2022/07/08 10:13:10;;;;;;;8.00;3.37;;;20.20;1.00;;;;;;5030757;28;20444;-60
2022/07/08 10:15:37;;;;;;;6.53;3.03;;;20.70;1.00;;;;;;5032187;28;20925;-61
2022/07/08 10:18:11;;;;;;;6.67;2.83;;;20.90;1.00;;;;;;5029959;28;20440;-59
2022/07/08 10:20:40;;;;;;;5.60;3.20;;;20.80;1.00;;;;;;5029658;28;20463;-58
2022/07/08 10:23:15;;;;;;;7.33;2.73;;;20.70;1.00;;;;;;5030143;28;20526;-60
2022/07/08 10:25:41;;;;;;;4.63;2.57;;;20.60;1.00;;;;;;5029523;28;20463;-60
2022/07/08 10:28:08;;;;;;;5.73;2.50;;;20.60;1.00;;;;;;5033227;28;20431;-59
2022/07/08 10:31:32;;;;;;;10.37;3.30;;;20.40;1.00;;;;;;5033236;28;20471;-60
2022/07/08 10:34:01;;;;;;;8.10;2.80;;;20.20;1.00;;;;;;5020210;28;20446;-60
2022/07/08 10:36:27;;;;;;;5.83;2.97;;;20.10;1.00;;;;;;5033792;28;20527;-60
2022/07/08 10:38:55;;;;;;;7.17;2.33;;;19.70;1.00;;;;;;5031522;28;20739;-60
2022/07/08 10:41:23;;;;;;;7.07;2.03;;;19.70;1.00;;;;;;5034866;28;20224;-62
2022/07/08 10:43:54;;;;;;;5.00;2.67;;;19.60;1.00;;;;;;5034915;28;20427;-60
2022/07/08 10:46:24;;;;;;;7.80;2.97;;;19.90;1.00;;;;;;5033489;28;21374;-60
2022/07/08 10:49:01;;;;;;;6.83;2.50;;;19.90;1.00;;;;;;5033532;28;20762;-59
2022/07/08 10:51:26;;;;;;;8.50;2.97;;;20.20;1.00;;;;;;5033383;28;20960;-60
2022/07/08 10:53:53;;;;;;;4.70;2.67;;;20.20;1.00;;;;;;5033604;28;20435;-60
2022/07/08 10:56:44;;;;;;;7.17;2.77;;;20.40;1.00;;;;;;5033032;28;20177;-60
2022/07/08 10:59:26;;;;;;;7.80;2.27;;;20.50;1.00;;;;;;5033508;28;20495;-60
2022/07/08 11:02:03;;;;;;;7.87;2.80;;;20.20;1.00;;;;;;5034512;28;20493;-61
2022/07/08 11:04:35;;;;;;;7.90;2.10;;;20.10;1.00;;;;;;5033467;28;20576;-61
2022/07/08 11:07:23;;;;;;;5.60;2.20;;;20.00;1.00;;;;;;5033117;28;20425;-60
2022/07/08 11:09:49;;;;;;;6.63;2.70;;;20.20;1.00;;;;;;5032952;28;20532;-62
2022/07/08 11:12:24;;;;;;;5.90;2.40;;;20.40;1.00;;;;;;5036471;28;20572;-61
2022/07/08 11:14:52;;;;;;;5.10;2.03;;;20.30;1.00;;;;;;5033144;28;20442;-61
2022/07/08 11:17:18;;;;;;;4.90;2.40;;;20.30;1.00;;;;;;5033217;28;20413;-62
2022/07/08 11:19:45;;;;;;;14.70;5.00;;;19.90;1.00;;;;;;5041028;28;20466;-60
2022/07/08 11:22:12;;;;;;;4.73;2.30;;;19.70;1.00;;;;;;5034718;28;20450;-61
2022/07/08 11:24:42;;;;;;;4.97;2.60;;;19.60;1.00;;;;;;5032924;28;20421;-61
2022/07/08 11:27:09;;;;;;;5.77;3.00;;;19.50;1.00;;;;;;5032579;28;20807;-60
2022/07/08 11:29:35;;;;;;;7.70;3.03;;;19.60;1.00;;;;;;5032609;28;20751;-61
2022/07/08 11:32:04;;;;;;;3.70;2.10;;;19.40;1.00;;;;;;5032425;28;20466;-61
2022/07/08 11:34:30;;;;;;;4.07;2.53;;;19.40;1.00;;;;;;5032999;28;20429;-61
2022/07/08 11:36:56;;;;;;;3.57;1.67;;;19.60;1.00;;;;;;5032051;28;20418;-60
2022/07/08 11:39:22;;;;;;;5.00;2.20;;;19.70;1.00;;;;;;5032610;28;20469;-61
2022/07/08 11:41:48;;;;;;;5.10;2.20;;;19.80;1.00;;;;;;5048273;28;20796;-60
2022/07/08 11:44:20;;;;;;;4.60;2.10;;;19.80;1.00;;;;;;5052613;28;20430;-61
2022/07/08 11:46:50;;;;;;;7.90;2.80;;;19.80;1.00;;;;;;5040139;28;20414;-60
2022/07/08 11:49:16;;;;;;;7.50;3.20;;;19.80;1.00;;;;;;5037461;28;20444;-61
2022/07/08 11:51:46;;;;;;;9.87;3.67;;;19.70;1.00;;;;;;5032629;28;20405;-61
2022/07/08 11:54:13;;;;;;;6.43;3.30;;;19.40;1.00;;;;;;5032146;28;20439;-59
2022/07/08 11:56:40;;;;;;;5.90;3.17;;;19.40;1.00;;;;;;5032453;28;20451;-59
2022/07/08 11:59:05;;;;;;;7.27;3.13;;;19.20;1.00;;;;;;5032135;28;20438;-59
2022/07/08 12:01:31;;;;;;;8.60;3.33;;;19.10;1.00;;;;;;5032568;28;20518;-60
2022/07/08 12:03:58;;;;;;;6.60;3.00;;;19.00;1.00;;;;;;5032174;28;20268;-61
2022/07/08 12:06:25;;;;;;;7.70;3.00;;;19.00;1.00;;;;;;5032226;28;20638;-59
2022/07/08 12:08:51;;;;;;;5.97;2.87;;;19.00;1.00;;;;;;5032139;28;20410;-60
2022/07/08 12:11:19;;;;;;;5.50;2.53;;;19.10;1.00;;;;;;5031876;28;20442;-64
2022/07/08 12:13:48;;;;;;;5.67;2.77;;;19.20;1.00;;;;;;5031885;28;20925;-64
2022/07/08 12:16:33;;;;;;;7.03;2.80;;;19.30;1.00;;;;;;5044835;28;20760;-62
2022/07/08 12:19:04;;;;;;;10.53;3.40;;;19.40;1.00;;;;;;5052089;28;20482;-63
2022/07/08 12:21:30;;;;;;;7.57;3.20;;;19.60;1.00;;;;;;5051892;28;20926;-61
2022/07/08 12:23:58;;;;;;;5.17;3.00;;;19.50;1.00;;;;;;5051945;28;20788;-63
2022/07/08 12:26:24;;;;;;;4.27;2.73;;;19.40;1.00;;;;;;5051638;28;20203;-62
2022/07/08 12:28:49;;;;;;;4.10;2.87;;;19.20;1.00;;;;;;5051829;28;20403;-62
2022/07/08 12:31:33;;;;;;;6.97;3.50;;;19.20;1.00;;;;;;5051558;28;20535;-63
2022/07/08 12:34:03;;;;;;;7.17;3.00;;;19.30;1.00;;;;;;5051670;28;20191;-62
2022/07/08 12:36:29;;;;;;;6.97;2.90;;;19.80;1.00;;;;;;5051054;28;20445;-63
2022/07/08 12:38:55;;;;;;;5.60;4.20;;;19.70;1.00;;;;;;5039995;28;20442;-62
2022/07/08 12:41:21;;;;;;;6.90;2.93;;;19.90;1.00;;;;;;5031665;28;20737;-62
2022/07/08 12:43:47;;;;;;;5.83;3.07;;;20.30;1.00;;;;;;5031773;28;20829;-62
2022/07/08 12:46:13;;;;;;;4.30;2.73;;;20.60;1.00;;;;;;5031381;28;20493;-63
2022/07/08 12:48:39;;;;;;;3.97;2.90;;;20.90;1.00;;;;;;5030904;28;20184;-62
2022/07/08 12:51:06;;;;;;;6.43;2.77;;;20.80;1.00;;;;;;5030995;28;20414;-64
2022/07/08 12:53:32;;;;;;;5.87;3.50;;;20.50;1.00;;;;;;5031236;28;20204;-62
2022/07/08 12:55:58;;;;;;;5.40;2.53;;;20.40;1.00;;;;;;5031162;28;20439;-62
2022/07/08 12:58:27;;;;;;;5.10;3.23;;;20.40;1.00;;;;;;5031390;28;20466;-63